Time,TemperatureF,DewpointF,PressureIn,WindDirection,WindDirectionDegrees,WindSpeedMPH,WindSpeedGustMPH,Humidity,HourlyPrecipIn,Conditions,Clouds,dailyrainin,SolarRadiationWatts/m^2,SoftwareType,DateUTC
2013-02-17 00:00:00,42.2,40.0,29.96,North,-999,0.0,0.0,92,0.00,,,-99.99,0,WeatherLink 5.7,2013-02-17 08:00:00,
2013-02-17 00:07:00,42.9,40.2,29.96,NNE,15,0.0,0.0,90,0.00,,,0.00,,Wunderground v.1.13,2013-02-17 08:07:00,
2013-02-17 00:12:00,42.8,40.1,29.96,NNE,15,0.0,0.0,90,0.00,,,0.00,,Wunderground v.1.13,2013-02-17 08:12:00,
2013-02-17 00:15:00,42.9,41.3,29.96,North,-999,0.0,0.0,94,0.00,,,-99.99,0,WeatherLink 5.7,2013-02-17 08:15:00,
2013-02-17 00:17:00,42.6,40.2,29.96,NNE,15,0.0,0.0,91,0.00,,,0.00,,Wunderground v.1.13,2013-02-17 08:17:00,
2013-02-17 00:26:00,42.5,40.1,29.96,NNE,15,0.0,0.0,91,0.00,,,0.00,,Wunderground v.1.13,2013-02-17 08:26:00,
2013-02-17 00:30:00,44.1,42.8,29.96,North,0,0.0,3.0,95,0.00,,,-99.99,0,WeatherLink 5.7,2013-02-17 08:30:00,
2013-02-17 00:32:00,42.5,40.1,29.95,NNE,15,0.0,0.0,91,0.00,,,0.00,,Wunderground v.1.13,2013-02-17 08:32:00,
2013-02-17 00:41:00,42.3,39.9,29.95,NNE,15,0.0,0.0,91,0.00,,,0.00,,Wunderground v.1.13,2013-02-17 08:41:00,
2013-02-17 00:45:00,46.1,44.5,29.96,NW,315,1.0,4.0,94,0.00,,,-99.99,0,WeatherLink 5.7,2013-02-17 08:45:00,
2013-02-17 00:47:00,42.2,39.8,29.96,NNE,15,0.0,0.0,91,0.00,,,0.00,,Wunderground v.1.13,2013-02-17 08:47:00,
2013-02-17 00:57:00,42.2,40.0,29.96,NNE,15,0.0,0.0,92,0.00,,,0.00,,Wunderground v.1.13,2013-02-17 08:57:00,
2013-02-17 01:02:00,42.3,40.1,29.96,NNE,15,0.0,0.0,92,0.00,,,0.00,,Wunderground v.1.13,2013-02-17 09:02:00,
2013-02-17 01:07:00,42.3,40.1,29.96,NNE,15,0.0,0.0,92,0.00,,,0.00,,Wunderground v.1.13,2013-02-17 09:07:00,
2013-02-17 01:15:00,46.5,44.3,29.94,WNW,292,1.0,6.0,92,0.00,,,-99.99,0,WeatherLink 5.7,2013-02-17 09:15:00,
2013-02-17 01:17:00,43.1,41.5,29.96,NNE,15,0.0,0.0,94,0.00,,,0.00,,Wunderground v.1.13,2013-02-17 09:17:00,
2013-02-17 01:26:00,43.6,42.0,29.96,NNE,15,0.0,0.0,94,0.00,,,0.00,,Wunderground v.1.13,2013-02-17 09:26:00,
2013-02-17 01:30:00,46.5,44.3,29.94,NW,315,1.0,4.0,92,0.00,,,-99.99,0,WeatherLink 5.7,2013-02-17 09:30:00,
2013-02-17 01:36:00,45.2,43.9,29.96,NW,307,1.0,1.0,95,0.00,,,0.00,,Wunderground v.1.13,2013-02-17 09:36:00,
2013-02-17 01:42:00,46.0,44.4,29.96,NW,308,1.0,1.0,94,0.00,,,0.00,,Wunderground v.1.13,2013-02-17 09:42:00,
2013-02-17 01:45:00,46.2,44.0,29.94,WNW,292,0.0,4.0,92,0.00,,,-99.99,0,WeatherLink 5.7,2013-02-17 09:45:00,
2013-02-17 01:52:00,46.2,44.3,29.96,NW,311,1.0,2.0,93,0.00,,,0.00,,Wunderground v.1.13,2013-02-17 09:52:00,
2013-02-17 02:00:00,45.8,43.6,29.93,WNW,292,0.0,4.0,92,0.00,,,-99.99,0,WeatherLink 5.7,2013-02-17 10:00:00,
2013-02-17 02:02:00,46.2,44.3,29.95,NW,313,0.0,0.0,93,0.00,,,0.00,,Wunderground v.1.13,2013-02-17 10:02:00,
2013-02-17 02:07:00,46.2,44.3,29.95,NW,326,1.0,4.0,93,0.00,,,0.00,,Wunderground v.1.13,2013-02-17 10:07:00,
2013-02-17 02:15:00,46.1,44.2,29.93,NNW,337,1.0,7.0,93,0.00,,,-99.99,0,WeatherLink 5.7,2013-02-17 10:15:00,
2013-02-17 02:17:00,46.5,44.3,29.95,NW,310,2.0,2.0,92,0.00,,,0.00,,Wunderground v.1.13,2013-02-17 10:17:00,
2013-02-17 02:27:00,46.5,44.3,29.95,NW,316,1.0,1.0,92,0.00,,,0.00,,Wunderground v.1.13,2013-02-17 10:27:00,
2013-02-17 02:30:00,45.8,43.6,29.93,WNW,292,0.0,4.0,92,0.00,,,-99.99,0,WeatherLink 5.7,2013-02-17 10:30:00,
2013-02-17 02:37:00,46.5,44.3,29.94,WNW,284,1.0,1.0,92,0.00,,,0.00,,Wunderground v.1.13,2013-02-17 10:37:00,
2013-02-17 02:42:00,46.4,44.2,29.94,WNW,284,0.0,0.0,92,0.00,,,0.00,,Wunderground v.1.13,2013-02-17 10:42:00,
2013-02-17 02:45:00,46.0,44.1,29.93,WNW,292,1.0,5.0,93,0.00,,,-99.99,0,WeatherLink 5.7,2013-02-17 10:45:00,
2013-02-17 02:51:00,46.1,43.9,29.94,WNW,284,0.0,0.0,92,0.00,,,0.00,,Wunderground v.1.13,2013-02-17 10:51:00,
2013-02-17 02:57:00,45.8,43.6,29.94,WNW,284,0.0,0.0,92,0.00,,,0.00,,Wunderground v.1.13,2013-02-17 10:57:00,
2013-02-17 03:00:00,45.7,43.8,29.92,NW,315,0.0,3.0,93,0.00,,,-99.99,0,WeatherLink 5.7,2013-02-17 11:00:00,
2013-02-17 03:07:00,45.8,43.9,29.93,West,281,1.0,1.0,93,0.00,,,0.00,,Wunderground v.1.13,2013-02-17 11:07:00,
2013-02-17 03:15:00,45.5,43.6,29.92,NW,315,0.0,2.0,93,0.00,,,-99.99,0,WeatherLink 5.7,2013-02-17 11:15:00,
2013-02-17 03:17:00,46.1,44.2,29.93,WNW,300,1.0,1.0,93,0.00,,,0.00,,Wunderground v.1.13,2013-02-17 11:17:00,
2013-02-17 03:22:00,46.1,44.2,29.93,WNW,300,0.0,0.0,93,0.00,,,0.00,,Wunderground v.1.13,2013-02-17 11:22:00,
2013-02-17 03:30:00,45.7,44.1,29.92,West,270,1.0,4.0,94,0.00,,,-99.99,0,WeatherLink 5.7,2013-02-17 11:30:00,
2013-02-17 03:32:00,45.7,43.8,29.93,WNW,285,1.0,1.0,93,0.00,,,0.00,,Wunderground v.1.13,2013-02-17 11:32:00,
2013-02-17 03:42:00,46.0,44.1,29.93,NW,304,1.0,1.0,93,0.00,,,0.00,,Wunderground v.1.13,2013-02-17 11:42:00,
2013-02-17 03:45:00,45.2,43.3,29.92,WNW,292,0.0,2.0,93,0.00,,,-99.99,0,WeatherLink 5.7,2013-02-17 11:45:00,
2013-02-17 03:52:00,45.8,43.9,29.93,NW,324,0.0,0.0,93,0.00,,,0.00,,Wunderground v.1.13,2013-02-17 11:52:00,
2013-02-17 03:57:00,45.7,43.8,29.93,NW,324,0.0,1.0,93,0.00,,,0.00,,Wunderground v.1.13,2013-02-17 11:57:00,
2013-02-17 04:00:00,44.8,42.9,29.92,WNW,292,0.0,2.0,93,0.00,,,-99.99,0,WeatherLink 5.7,2013-02-17 12:00:00,
2013-02-17 04:02:00,45.7,43.8,29.92,NW,324,0.0,0.0,93,0.00,,,0.00,,Wunderground v.1.13,2013-02-17 12:02:00,
2013-02-17 04:12:00,45.7,43.8,29.92,NW,324,0.0,0.0,93,0.00,,,0.00,,Wunderground v.1.13,2013-02-17 12:12:00,
2013-02-17 04:15:00,43.8,41.9,29.93,WNW,292,0.0,1.0,93,0.00,,,-99.99,0,WeatherLink 5.7,2013-02-17 12:15:00,
2013-02-17 04:22:00,45.5,43.9,29.92,West,278,1.0,1.0,94,0.00,,,0.00,,Wunderground v.1.13,2013-02-17 12:22:00,
2013-02-17 04:30:00,43.2,41.3,29.93,WNW,292,0.0,1.0,93,0.00,,,-99.99,0,WeatherLink 5.7,2013-02-17 12:30:00,
2013-02-17 04:31:00,45.7,44.1,29.92,WNW,301,1.0,1.0,94,0.00,,,0.00,,Wunderground v.1.13,2013-02-17 12:31:00,
2013-02-17 04:37:00,45.7,43.8,29.92,WNW,301,0.0,0.0,93,0.00,,,0.00,,Wunderground v.1.13,2013-02-17 12:37:00,
2013-02-17 04:42:00,45.4,43.5,29.92,WNW,301,0.0,1.0,93,0.00,,,0.00,,Wunderground v.1.13,2013-02-17 12:42:00,
2013-02-17 04:45:00,43.2,41.6,29.93,WNW,292,0.0,1.0,94,0.00,,,-99.99,0,WeatherLink 5.7,2013-02-17 12:45:00,
2013-02-17 04:51:00,44.9,43.0,29.92,WNW,301,0.0,0.0,93,0.00,,,0.00,,Wunderground v.1.13,2013-02-17 12:51:00,
2013-02-17 05:00:00,42.9,41.3,29.93,WNW,292,0.0,1.0,94,0.00,,,-99.99,0,WeatherLink 5.7,2013-02-17 13:00:00,
2013-02-17 05:02:00,44.8,42.9,29.92,WNW,301,0.0,0.0,93,0.00,,,0.00,,Wunderground v.1.13,2013-02-17 13:02:00,
2013-02-17 05:12:00,44.1,42.2,29.92,WNW,301,0.0,0.0,93,0.00,,,0.00,,Wunderground v.1.13,2013-02-17 13:12:00,
2013-02-17 05:15:00,42.6,41.0,29.93,WNW,292,0.0,1.0,94,0.00,,,-99.99,0,WeatherLink 5.7,2013-02-17 13:15:00,
2013-02-17 05:17:00,43.8,41.9,29.93,WNW,301,0.0,0.0,93,0.00,,,0.00,,Wunderground v.1.13,2013-02-17 13:17:00,
2013-02-17 05:27:00,43.3,41.4,29.93,WNW,301,0.0,0.0,93,0.00,,,0.00,,Wunderground v.1.13,2013-02-17 13:27:00,
2013-02-17 05:30:00,42.1,40.5,29.94,North,-999,0.0,0.0,94,0.00,,,-99.99,0,WeatherLink 5.7,2013-02-17 13:30:00,
2013-02-17 05:32:00,43.2,41.3,29.93,WNW,301,0.0,0.0,93,0.00,,,0.00,,Wunderground v.1.13,2013-02-17 13:32:00,
2013-02-17 05:37:00,43.2,41.3,29.93,WNW,301,0.0,0.0,93,0.00,,,0.00,,Wunderground v.1.13,2013-02-17 13:37:00,
2013-02-17 05:42:00,43.2,41.3,29.93,WNW,301,0.0,0.0,93,0.00,,,0.00,,Wunderground v.1.13,2013-02-17 13:42:00,
2013-02-17 05:45:00,41.3,39.4,29.94,North,-999,0.0,0.0,93,0.00,,,-99.99,0,WeatherLink 5.7,2013-02-17 13:45:00,
2013-02-17 05:47:00,43.2,41.6,29.93,WNW,301,0.0,0.0,94,0.00,,,0.00,,Wunderground v.1.13,2013-02-17 13:47:00,
2013-02-17 05:52:00,43.2,41.6,29.93,WNW,301,0.0,0.0,94,0.00,,,0.00,,Wunderground v.1.13,2013-02-17 13:52:00,
2013-02-17 06:00:00,40.6,39.0,29.95,North,-999,0.0,0.0,94,0.00,,,-99.99,0,WeatherLink 5.7,2013-02-17 14:00:00,
2013-02-17 06:02:00,42.9,41.3,29.93,WNW,301,0.0,0.0,94,0.00,,,0.00,,Wunderground v.1.13,2013-02-17 14:02:00,
2013-02-17 06:07:00,42.8,41.2,29.93,WNW,301,0.0,0.0,94,0.00,,,0.00,,Wunderground v.1.13,2013-02-17 14:07:00,
2013-02-17 06:15:00,40.2,38.3,29.95,North,-999,0.0,0.0,93,0.00,,,-99.99,7,WeatherLink 5.7,2013-02-17 14:15:00,
2013-02-17 06:17:00,42.6,41.0,29.93,WNW,301,0.0,0.0,94,0.00,,,0.00,,Wunderground v.1.13,2013-02-17 14:17:00,
2013-02-17 06:26:00,42.2,40.6,29.93,WNW,301,0.0,0.0,94,0.00,,,0.00,,Wunderground v.1.13,2013-02-17 14:26:00,
2013-02-17 06:32:00,42.1,40.5,29.94,WNW,301,0.0,0.0,94,0.00,,,0.00,,Wunderground v.1.13,2013-02-17 14:32:00,
2013-02-17 06:42:00,41.5,39.6,29.94,WNW,301,0.0,0.0,93,0.00,,,0.00,,Wunderground v.1.13,2013-02-17 14:42:00,
2013-02-17 06:45:00,39.6,38.0,29.96,North,-999,0.0,0.0,94,0.00,,,-99.99,18,WeatherLink 5.7,2013-02-17 14:45:00,
2013-02-17 06:51:00,40.9,39.0,29.94,WNW,301,0.0,0.0,93,0.00,,,0.00,,Wunderground v.1.13,2013-02-17 14:51:00,
2013-02-17 06:57:00,40.8,39.2,29.94,WNW,301,0.0,0.0,94,0.00,,,0.00,,Wunderground v.1.13,2013-02-17 14:57:00,
2013-02-17 07:00:00,39.8,38.2,29.96,North,-999,0.0,0.0,94,0.00,,,-99.99,21,WeatherLink 5.7,2013-02-17 15:00:00,
2013-02-17 07:02:00,40.6,39.0,29.95,WNW,301,0.0,0.0,94,0.00,,,0.00,,Wunderground v.1.13,2013-02-17 15:02:00,
2013-02-17 07:12:00,40.3,38.4,29.95,WNW,301,0.0,0.0,93,0.00,,,0.00,,Wunderground v.1.13,2013-02-17 15:12:00,
2013-02-17 07:15:00,40.5,39.2,29.96,North,-999,0.0,0.0,95,0.00,,,-99.99,23,WeatherLink 5.7,2013-02-17 15:15:00,
2013-02-17 07:22:00,39.9,38.0,29.95,WNW,301,0.0,0.0,93,0.00,,,0.00,,Wunderground v.1.13,2013-02-17 15:22:00,
2013-02-17 07:27:00,39.8,37.9,29.95,WNW,301,0.0,0.0,93,0.00,,,0.00,,Wunderground v.1.13,2013-02-17 15:27:00,
2013-02-17 07:30:00,41.6,40.5,29.96,North,-999,0.0,0.0,96,0.00,,,-99.99,25,WeatherLink 5.7,2013-02-17 15:30:00,
2013-02-17 07:37:00,39.6,38.0,29.95,WNW,301,0.0,0.0,94,0.00,,,0.00,,Wunderground v.1.13,2013-02-17 15:37:00,
2013-02-17 07:42:00,39.6,38.0,29.95,WNW,301,0.0,0.0,94,0.00,,,0.00,,Wunderground v.1.13,2013-02-17 15:42:00,
2013-02-17 07:45:00,42.9,41.8,29.97,North,-999,0.0,0.0,96,0.00,,,-99.99,28,WeatherLink 5.7,2013-02-17 15:45:00,
2013-02-17 07:47:00,39.8,38.2,29.96,WNW,301,0.0,0.0,94,0.00,,,0.00,,Wunderground v.1.13,2013-02-17 15:47:00,
2013-02-17 07:57:00,39.8,38.2,29.96,WNW,301,0.0,0.0,94,0.00,,,0.00,,Wunderground v.1.13,2013-02-17 15:57:00,
2013-02-17 08:00:00,43.9,42.8,29.97,North,-999,0.0,0.0,96,0.00,,,-99.99,28,WeatherLink 5.7,2013-02-17 16:00:00,
2013-02-17 08:07:00,39.9,38.3,29.96,WNW,301,0.0,0.0,94,0.00,,,0.00,,Wunderground v.1.13,2013-02-17 16:07:00,
2013-02-17 08:12:00,40.2,38.9,29.96,WNW,301,0.0,0.0,95,0.00,,,0.00,,Wunderground v.1.13,2013-02-17 16:12:00,
2013-02-17 08:15:00,46.0,45.2,29.97,WNW,292,0.0,1.0,97,0.00,,,-99.99,30,WeatherLink 5.7,2013-02-17 16:15:00,
2013-02-17 08:21:00,40.9,39.6,29.96,WNW,301,0.0,0.0,95,0.00,,,0.00,,Wunderground v.1.13,2013-02-17 16:21:00,
2013-02-17 08:30:00,47.0,46.2,29.98,WNW,292,0.0,1.0,97,0.00,,,-99.99,34,WeatherLink 5.7,2013-02-17 16:30:00,
2013-02-17 08:32:00,41.8,40.7,29.96,WNW,301,0.0,0.0,96,0.00,,,0.00,,Wunderground v.1.13,2013-02-17 16:32:00,
2013-02-17 08:41:00,42.6,41.5,29.96,WNW,301,0.0,0.0,96,0.00,,,0.00,,Wunderground v.1.13,2013-02-17 16:41:00,
2013-02-17 08:45:00,48.0,46.9,29.98,WNW,292,0.0,1.0,96,0.00,,,-99.99,37,WeatherLink 5.7,2013-02-17 16:45:00,
2013-02-17 08:46:00,43.1,42.0,29.97,WNW,301,0.0,0.0,96,0.00,,,0.00,,Wunderground v.1.13,2013-02-17 16:46:00,
2013-02-17 08:52:00,43.5,42.4,29.97,WNW,301,0.0,0.0,96,0.00,,,0.00,,Wunderground v.1.13,2013-02-17 16:52:00,
2013-02-17 09:00:00,49.2,46.1,29.97,WNW,292,0.0,1.0,89,0.00,,,-99.99,36,WeatherLink 5.7,2013-02-17 17:00:00,
2013-02-17 09:02:00,44.2,43.1,29.97,WNW,301,0.0,0.0,96,0.00,,,0.00,,Wunderground v.1.13,2013-02-17 17:02:00,
2013-02-17 09:12:00,45.5,44.7,29.97,WNW,301,0.0,0.0,97,0.00,,,0.00,,Wunderground v.1.13,2013-02-17 17:12:00,
2013-02-17 09:15:00,51.0,45.4,29.97,WNW,292,0.0,2.0,81,0.00,,,-99.99,43,WeatherLink 5.7,2013-02-17 17:15:00,
2013-02-17 09:22:00,46.4,45.6,29.97,WNW,301,0.0,0.0,97,0.00,,,0.00,,Wunderground v.1.13,2013-02-17 17:22:00,
2013-02-17 09:30:00,52.9,41.4,29.97,NW,315,0.0,3.0,65,0.00,,,-99.99,45,WeatherLink 5.7,2013-02-17 17:30:00,
2013-02-17 09:32:00,47.1,46.3,29.98,WNW,301,0.0,0.0,97,0.00,,,0.00,,Wunderground v.1.13,2013-02-17 17:32:00,
2013-02-17 09:37:00,47.6,46.5,29.98,WNW,301,0.0,0.0,96,0.00,,,0.00,,Wunderground v.1.13,2013-02-17 17:37:00,
2013-02-17 09:42:00,47.9,46.8,29.98,WNW,301,0.0,0.0,96,0.00,,,0.00,,Wunderground v.1.13,2013-02-17 17:42:00,
2013-02-17 09:45:00,55.0,40.9,29.97,NE,45,0.0,3.0,59,0.00,,,-99.99,131,WeatherLink 5.7,2013-02-17 17:45:00,
2013-02-17 09:52:00,48.5,46.9,29.98,WNW,301,0.0,0.0,94,0.00,,,0.00,,Wunderground v.1.13,2013-02-17 17:52:00,
2013-02-17 09:57:00,48.9,46.4,29.98,WNW,303,0.0,0.0,91,0.00,,,0.00,,Wunderground v.1.13,2013-02-17 17:57:00,
2013-02-17 10:00:00,56.6,39.7,29.97,ENE,67,1.0,6.0,53,0.00,,,-99.99,417,WeatherLink 5.7,2013-02-17 18:00:00,
2013-02-17 10:07:00,49.8,46.1,29.97,WNW,303,0.0,0.0,87,0.00,,,0.00,,Wunderground v.1.13,2013-02-17 18:07:00,
2013-02-17 10:15:00,57.8,38.2,29.96,East,90,1.0,3.0,48,0.00,,,-99.99,542,WeatherLink 5.7,2013-02-17 18:15:00,
2013-02-17 10:17:00,51.1,45.5,29.97,WNW,303,0.0,0.0,81,0.00,,,0.00,,Wunderground v.1.13,2013-02-17 18:17:00,
2013-02-17 10:26:00,52.5,42.2,29.97,ENE,76,0.0,0.0,68,0.00,,,0.00,,Wunderground v.1.13,2013-02-17 18:26:00,
2013-02-17 10:30:00,58.9,38.7,29.96,ENE,67,1.0,4.0,47,0.00,,,-99.99,511,WeatherLink 5.7,2013-02-17 18:30:00,
2013-02-17 10:37:00,53.8,40.2,29.97,NE,50,0.0,2.0,60,0.00,,,0.00,,Wunderground v.1.13,2013-02-17 18:37:00,
2013-02-17 10:45:00,59.3,36.8,29.96,ENE,67,1.0,5.0,43,0.00,,,-99.99,527,WeatherLink 5.7,2013-02-17 18:45:00,
2013-02-17 10:46:00,55.1,40.6,29.97,NNE,24,1.0,1.0,58,0.00,,,0.00,,Wunderground v.1.13,2013-02-17 18:46:00,
2013-02-17 10:52:00,55.7,41.1,29.97,ENE,77,0.0,2.0,58,0.00,,,0.00,,Wunderground v.1.13,2013-02-17 18:52:00,
2013-02-17 11:00:00,59.8,37.8,29.96,East,90,1.0,4.0,44,0.00,,,-99.99,343,WeatherLink 5.7,2013-02-17 19:00:00,
2013-02-17 11:02:00,56.7,39.3,29.97,ENE,65,1.0,1.0,52,0.00,,,0.00,,Wunderground v.1.13,2013-02-17 19:02:00,
2013-02-17 11:11:00,57.6,39.1,29.97,East,96,0.0,2.0,50,0.00,,,0.00,,Wunderground v.1.13,2013-02-17 19:11:00,
2013-02-17 11:15:00,60.4,37.8,29.95,East,90,1.0,3.0,43,0.00,,,-99.99,324,WeatherLink 5.7,2013-02-17 19:15:00,
2013-02-17 11:17:00,57.8,38.2,29.96,NW,319,1.0,1.0,48,0.00,,,0.00,,Wunderground v.1.13,2013-02-17 19:17:00,
2013-02-17 11:27:00,58.6,37.9,29.96,ENE,65,1.0,1.0,46,0.00,,,0.00,,Wunderground v.1.13,2013-02-17 19:27:00,
2013-02-17 11:30:00,61.3,37.4,29.93,East,90,0.0,3.0,41,0.00,,,-99.99,283,WeatherLink 5.7,2013-02-17 19:30:00,
2013-02-17 11:36:00,59.0,38.2,29.96,WNW,287,1.0,1.0,46,0.00,,,0.00,,Wunderground v.1.13,2013-02-17 19:36:00,
2013-02-17 11:42:00,59.2,37.9,29.96,ENE,63,1.0,1.0,45,0.00,,,0.00,,Wunderground v.1.13,2013-02-17 19:42:00,
2013-02-17 11:45:00,61.8,35.2,29.93,East,90,1.0,3.0,37,0.00,,,-99.99,383,WeatherLink 5.7,2013-02-17 19:45:00,
2013-02-17 11:52:00,59.5,37.0,29.96,ESE,105,1.0,1.0,43,0.00,,,0.00,,Wunderground v.1.13,2013-02-17 19:52:00,
2013-02-17 12:00:00,62.9,34.8,29.93,ENE,67,1.0,4.0,35,0.00,,,-99.99,108,WeatherLink 5.7,2013-02-17 20:00:00,
2013-02-17 12:02:00,59.9,37.3,29.96,ENE,62,1.0,1.0,43,0.00,,,0.00,,Wunderground v.1.13,2013-02-17 20:02:00,
2013-02-17 12:07:00,60.2,37.6,29.96,NNW,327,1.0,1.0,43,0.00,,,0.00,,Wunderground v.1.13,2013-02-17 20:07:00,
2013-02-17 12:12:00,60.2,37.6,29.96,East,82,1.0,1.0,43,0.00,,,0.00,,Wunderground v.1.13,2013-02-17 20:12:00,
2013-02-17 12:15:00,63.2,34.3,29.92,ENE,67,0.0,3.0,34,0.00,,,-99.99,480,WeatherLink 5.7,2013-02-17 20:15:00,
2013-02-17 12:21:00,60.9,37.0,29.95,East,80,1.0,1.0,41,0.00,,,0.00,,Wunderground v.1.13,2013-02-17 20:21:00,
2013-02-17 12:27:00,61.0,36.5,29.95,WNW,285,1.0,1.0,40,0.00,,,0.00,,Wunderground v.1.13,2013-02-17 20:27:00,
2013-02-17 12:30:00,63.7,34.0,29.91,West,270,1.0,4.0,33,0.00,,,-99.99,295,WeatherLink 5.7,2013-02-17 20:30:00,
2013-02-17 12:36:00,61.6,35.7,29.93,East,88,0.0,0.0,38,0.00,,,0.00,,Wunderground v.1.13,2013-02-17 20:36:00,
2013-02-17 12:42:00,61.6,35.7,29.93,ESE,106,1.0,1.0,38,0.00,,,0.00,,Wunderground v.1.13,2013-02-17 20:42:00,
2013-02-17 12:45:00,63.7,34.8,29.91,ENE,67,1.0,5.0,34,0.00,,,-99.99,68,WeatherLink 5.7,2013-02-17 20:45:00,
2013-02-17 12:47:00,62.0,36.1,29.93,East,79,0.0,0.0,38,0.00,,,0.00,,Wunderground v.1.13,2013-02-17 20:47:00,
2013-02-17 12:57:00,62.7,36.0,29.93,WNW,292,1.0,1.0,37,0.00,,,0.00,,Wunderground v.1.13,2013-02-17 20:57:00,
2013-02-17 13:00:00,63.7,33.3,29.90,East,90,1.0,4.0,32,0.00,,,-99.99,70,WeatherLink 5.7,2013-02-17 21:00:00,
2013-02-17 13:07:00,62.9,35.5,29.93,ENE,76,1.0,1.0,36,0.00,,,0.00,,Wunderground v.1.13,2013-02-17 21:07:00,
2013-02-17 13:12:00,63.1,36.4,29.93,ENE,76,0.0,0.0,37,0.00,,,0.00,,Wunderground v.1.13,2013-02-17 21:12:00,
2013-02-17 13:15:00,63.9,32.6,29.90,East,90,1.0,6.0,31,0.00,,,-99.99,187,WeatherLink 5.7,2013-02-17 21:15:00,
2013-02-17 13:22:00,63.7,34.0,29.91,WNW,283,1.0,1.0,33,0.00,,,0.00,,Wunderground v.1.13,2013-02-17 21:22:00,
2013-02-17 13:30:00,64.3,33.0,29.90,NNW,337,1.0,4.0,31,0.00,,,-99.99,381,WeatherLink 5.7,2013-02-17 21:30:00,
2013-02-17 13:31:00,63.5,33.9,29.91,East,92,1.0,1.0,33,0.00,,,0.00,,Wunderground v.1.13,2013-02-17 21:31:00,
2013-02-17 13:37:00,63.5,35.3,29.91,East,97,0.0,1.0,35,0.00,,,0.00,,Wunderground v.1.13,2013-02-17 21:37:00,
2013-02-17 13:45:00,64.5,32.4,29.89,WNW,292,0.0,3.0,30,0.00,,,-99.99,239,WeatherLink 5.7,2013-02-17 21:45:00,
2013-02-17 13:47:00,63.9,35.0,29.91,North,5,1.0,2.0,34,0.00,,,0.00,,Wunderground v.1.13,2013-02-17 21:47:00,
2013-02-17 13:56:00,63.7,32.5,29.91,NW,326,1.0,1.0,31,0.00,,,0.00,,Wunderground v.1.13,2013-02-17 21:56:00,
2013-02-17 14:00:00,64.3,33.0,29.89,NW,315,1.0,5.0,31,0.00,,,-99.99,54,WeatherLink 5.7,2013-02-17 22:00:00,
2013-02-17 14:02:00,63.7,34.0,29.90,ENE,57,1.0,1.0,33,0.00,,,0.00,,Wunderground v.1.13,2013-02-17 22:02:00,
2013-02-17 14:12:00,63.9,32.6,29.90,North,5,1.0,1.0,31,0.00,,,0.00,,Wunderground v.1.13,2013-02-17 22:12:00,
2013-02-17 14:15:00,63.5,33.9,29.88,WNW,292,1.0,4.0,33,0.00,,,-99.99,38,WeatherLink 5.7,2013-02-17 22:15:00,
2013-02-17 14:22:00,64.0,32.7,29.90,ENE,70,1.0,2.0,31,0.00,,,0.00,,Wunderground v.1.13,2013-02-17 22:22:00,
2013-02-17 14:30:00,63.7,34.0,29.88,NW,315,1.0,3.0,33,0.00,,,-99.99,37,WeatherLink 5.7,2013-02-17 22:30:00,
2013-02-17 14:32:00,64.3,33.0,29.90,WNW,296,1.0,1.0,31,0.00,,,0.00,,Wunderground v.1.13,2013-02-17 22:32:00,
2013-02-17 14:42:00,64.3,33.0,29.90,NW,313,0.0,0.0,31,0.00,,,0.00,,Wunderground v.1.13,2013-02-17 22:42:00,
2013-02-17 14:45:00,63.5,34.6,29.88,WNW,292,0.0,4.0,34,0.00,,,-99.99,43,WeatherLink 5.7,2013-02-17 22:45:00,
2013-02-17 14:51:00,64.3,33.0,29.89,NW,313,1.0,1.0,31,0.00,,,0.00,,Wunderground v.1.13,2013-02-17 22:51:00,
2013-02-17 15:00:00,63.2,35.1,29.88,WNW,292,0.0,2.0,35,0.00,,,-99.99,44,WeatherLink 5.7,2013-02-17 23:00:00,
2013-02-17 15:02:00,64.3,33.8,29.89,WNW,296,1.0,1.0,32,0.00,,,0.00,,Wunderground v.1.13,2013-02-17 23:02:00,
2013-02-17 15:12:00,63.9,32.6,29.89,NE,46,1.0,1.0,31,0.00,,,0.00,,Wunderground v.1.13,2013-02-17 23:12:00,
2013-02-17 15:15:00,63.2,36.5,29.88,NE,45,0.0,2.0,37,0.00,,,-99.99,31,WeatherLink 5.7,2013-02-17 23:15:00,
2013-02-17 15:17:00,63.5,33.9,29.88,NE,46,0.0,1.0,33,0.00,,,0.00,,Wunderground v.1.13,2013-02-17 23:17:00,
2013-02-17 15:27:00,63.5,35.3,29.88,NW,311,1.0,1.0,35,0.00,,,0.00,,Wunderground v.1.13,2013-02-17 23:27:00,
2013-02-17 15:30:00,62.6,37.9,29.88,ENE,67,0.0,1.0,40,0.00,,,-99.99,33,WeatherLink 5.7,2013-02-17 23:30:00,
2013-02-17 15:36:00,63.7,34.8,29.88,WNW,283,1.0,2.0,34,0.00,,,0.00,,Wunderground v.1.13,2013-02-17 23:36:00,
2013-02-17 15:42:00,63.5,35.3,29.88,WNW,283,1.0,1.0,35,0.00,,,0.00,,Wunderground v.1.13,2013-02-17 23:42:00,
2013-02-17 15:45:00,62.0,39.8,29.88,North,-999,0.0,0.0,44,0.00,,,-99.99,39,WeatherLink 5.7,2013-02-17 23:45:00,
2013-02-17 15:52:00,63.4,35.2,29.88,WNW,283,0.0,0.0,35,0.00,,,0.00,,Wunderground v.1.13,2013-02-17 23:52:00,
2013-02-17 16:00:00,61.3,44.0,29.88,ENE,67,0.0,4.0,53,0.00,,,-99.99,24,WeatherLink 5.7,2013-02-18 00:00:00,
2013-02-17 16:01:00,63.2,35.1,29.88,NE,55,0.0,0.0,35,0.00,,,0.00,,Wunderground v.1.13,2013-02-18 00:01:00,
2013-02-17 16:07:00,63.2,35.8,29.88,NNW,341,0.0,2.0,36,0.00,,,0.00,,Wunderground v.1.13,2013-02-18 00:07:00,
2013-02-17 16:15:00,60.4,44.2,29.88,NW,315,0.0,4.0,55,0.00,,,-99.99,18,WeatherLink 5.7,2013-02-18 00:15:00,
2013-02-17 16:17:00,63.2,37.2,29.88,ENE,75,0.0,0.0,38,0.00,,,0.00,,Wunderground v.1.13,2013-02-18 00:17:00,
2013-02-17 16:27:00,62.7,37.4,29.88,ENE,75,0.0,0.0,39,0.00,,,0.00,,Wunderground v.1.13,2013-02-18 00:27:00,
2013-02-17 16:30:00,59.3,43.1,29.88,NW,315,0.0,1.0,55,0.00,,,-99.99,13,WeatherLink 5.7,2013-02-18 00:30:00,
2013-02-17 16:36:00,62.4,37.7,29.88,ENE,75,0.0,0.0,40,0.00,,,0.00,,Wunderground v.1.13,2013-02-18 00:36:00,
2013-02-17 16:41:00,62.1,39.3,29.88,ENE,75,0.0,0.0,43,0.00,,,0.00,,Wunderground v.1.13,2013-02-18 00:41:00,
2013-02-17 16:45:00,58.1,43.4,29.88,North,-999,0.0,0.0,58,0.00,,,-99.99,8,WeatherLink 5.7,2013-02-18 00:45:00,
2013-02-17 16:46:00,62.0,39.8,29.88,ENE,74,0.0,1.0,44,0.00,,,0.00,,Wunderground v.1.13,2013-02-18 00:46:00,
2013-02-17 16:52:00,61.6,43.8,29.88,ENE,75,0.0,0.0,52,0.00,,,0.00,,Wunderground v.1.13,2013-02-18 00:52:00,
2013-02-17 17:00:00,56.3,42.6,29.88,NW,315,0.0,1.0,60,0.00,,,-99.99,1,WeatherLink 5.7,2013-02-18 01:00:00,
2013-02-17 17:02:00,61.2,44.4,29.88,NW,322,1.0,1.0,54,0.00,,,0.00,,Wunderground v.1.13,2013-02-18 01:02:00,
2013-02-17 17:11:00,60.7,43.9,29.88,NW,325,0.0,0.0,54,0.00,,,0.00,,Wunderground v.1.13,2013-02-18 01:11:00,
2013-02-17 17:15:00,54.7,41.5,29.89,North,-999,0.0,0.0,61,0.00,,,-99.99,0,WeatherLink 5.7,2013-02-18 01:15:00,
2013-02-17 17:17:00,60.4,44.2,29.88,NW,325,0.0,0.0,55,0.00,,,0.00,,Wunderground v.1.13,2013-02-18 01:17:00,
2013-02-17 17:22:00,59.9,43.2,29.88,NW,326,0.0,0.0,54,0.00,,,0.00,,Wunderground v.1.13,2013-02-18 01:22:00,
2013-02-17 17:30:00,54.1,40.9,29.89,NW,315,0.0,3.0,61,0.00,,,-99.99,0,WeatherLink 5.7,2013-02-18 01:30:00,
2013-02-17 17:32:00,59.2,43.0,29.88,NW,325,0.0,0.0,55,0.00,,,0.00,,Wunderground v.1.13,2013-02-18 01:32:00,
2013-02-17 17:42:00,58.4,43.2,29.88,NW,325,0.0,0.0,57,0.00,,,0.00,,Wunderground v.1.13,2013-02-18 01:42:00,
2013-02-17 17:45:00,53.3,40.6,29.89,North,-999,0.0,0.0,62,0.00,,,-99.99,0,WeatherLink 5.7,2013-02-18 01:45:00,
2013-02-17 17:52:00,57.3,43.1,29.88,NW,325,0.0,0.0,59,0.00,,,0.00,,Wunderground v.1.13,2013-02-18 01:52:00,
2013-02-17 17:57:00,56.7,43.0,29.88,NW,325,0.0,0.0,60,0.00,,,0.00,,Wunderground v.1.13,2013-02-18 01:57:00,
2013-02-17 18:00:00,52.2,40.0,29.89,NW,315,0.0,1.0,63,0.00,,,-99.99,0,WeatherLink 5.7,2013-02-18 02:00:00,
2013-02-17 18:07:00,55.6,42.4,29.88,NW,325,0.0,0.0,61,0.00,,,0.00,,Wunderground v.1.13,2013-02-18 02:07:00,
2013-02-17 18:15:00,51.0,39.2,29.89,NW,315,0.0,2.0,64,0.00,,,-99.99,0,WeatherLink 5.7,2013-02-18 02:15:00,
2013-02-17 18:17:00,54.7,41.5,29.89,NW,325,0.0,0.0,61,0.00,,,0.00,,Wunderground v.1.13,2013-02-18 02:17:00,
2013-02-17 18:22:00,54.4,40.8,29.89,NW,325,0.0,0.0,60,0.00,,,0.00,,Wunderground v.1.13,2013-02-18 02:22:00,
2013-02-17 18:30:00,50.4,39.1,29.90,NW,315,0.0,1.0,65,0.00,,,-99.99,0,WeatherLink 5.7,2013-02-18 02:30:00,
2013-02-17 18:32:00,54.1,40.9,29.89,NW,325,0.0,0.0,61,0.00,,,0.00,,Wunderground v.1.13,2013-02-18 02:32:00,
2013-02-17 18:37:00,53.8,41.1,29.89,NW,325,0.0,0.0,62,0.00,,,0.00,,Wunderground v.1.13,2013-02-18 02:37:00,
2013-02-17 18:45:00,49.4,38.5,29.90,NW,315,0.0,1.0,66,0.00,,,-99.99,0,WeatherLink 5.7,2013-02-18 02:45:00,
2013-02-17 18:47:00,53.2,40.9,29.89,NW,325,0.0,0.0,63,0.00,,,0.00,,Wunderground v.1.13,2013-02-18 02:47:00,
2013-02-17 18:52:00,52.9,40.6,29.89,NW,325,0.0,0.0,63,0.00,,,0.00,,Wunderground v.1.13,2013-02-18 02:52:00,
2013-02-17 19:00:00,48.8,38.3,29.90,NW,315,0.0,1.0,67,0.00,,,-99.99,0,WeatherLink 5.7,2013-02-18 03:00:00,
2013-02-17 19:02:00,52.2,40.4,29.89,NW,325,0.0,0.0,64,0.00,,,0.00,,Wunderground v.1.13,2013-02-18 03:02:00,
2013-02-17 19:07:00,51.7,39.9,29.89,NW,325,0.0,0.0,64,0.00,,,0.00,,Wunderground v.1.13,2013-02-18 03:07:00,
2013-02-17 19:12:00,51.3,39.5,29.89,NW,325,0.0,0.0,64,0.00,,,0.00,,Wunderground v.1.13,2013-02-18 03:12:00,
2013-02-17 19:15:00,48.2,38.1,29.90,NW,315,0.0,1.0,68,0.00,,,-99.99,0,WeatherLink 5.7,2013-02-18 03:15:00,
2013-02-17 19:21:00,50.7,39.0,29.89,NW,325,1.0,1.0,64,0.00,,,0.00,,Wunderground v.1.13,2013-02-18 03:21:00,
2013-02-17 19:27:00,50.5,39.2,29.89,NW,325,0.0,0.0,65,0.00,,,0.00,,Wunderground v.1.13,2013-02-18 03:27:00,
2013-02-17 19:30:00,47.4,38.5,29.90,North,-999,0.0,0.0,71,0.00,,,-99.99,0,WeatherLink 5.7,2013-02-18 03:30:00,
2013-02-17 19:37:00,49.9,39.0,29.90,NW,325,0.0,0.0,66,0.00,,,0.00,,Wunderground v.1.13,2013-02-18 03:37:00,
2013-02-17 19:41:00,49.5,38.6,29.90,NW,325,0.0,0.0,66,0.00,,,0.00,,Wunderground v.1.13,2013-02-18 03:41:00,
2013-02-17 19:45:00,46.5,38.0,29.90,North,-999,0.0,0.0,72,0.00,,,-99.99,0,WeatherLink 5.7,2013-02-18 03:45:00,
2013-02-17 19:47:00,49.2,38.3,29.90,NW,325,0.0,0.0,66,0.00,,,0.00,,Wunderground v.1.13,2013-02-18 03:47:00,
2013-02-17 19:52:00,49.1,38.2,29.90,NW,326,0.0,0.0,66,0.00,,,0.00,,Wunderground v.1.13,2013-02-18 03:52:00,
2013-02-17 20:00:00,45.5,37.7,29.91,North,-999,0.0,0.0,74,0.00,,,-99.99,0,WeatherLink 5.7,2013-02-18 04:00:00,
2013-02-17 20:02:00,48.8,38.3,29.90,NW,325,0.0,0.0,67,0.00,,,0.00,,Wunderground v.1.13,2013-02-18 04:02:00,
2013-02-17 20:12:00,48.3,38.2,29.90,NW,325,0.0,0.0,68,0.00,,,0.00,,Wunderground v.1.13,2013-02-18 04:12:00,
2013-02-17 20:15:00,44.6,37.5,29.91,North,-999,0.0,0.0,76,0.00,,,-99.99,0,WeatherLink 5.7,2013-02-18 04:15:00,
2013-02-17 20:22:00,47.9,38.2,29.90,NW,325,0.0,0.0,69,0.00,,,0.00,,Wunderground v.1.13,2013-02-18 04:22:00,
2013-02-17 20:27:00,47.6,38.3,29.90,NW,326,0.0,0.0,70,0.00,,,0.00,,Wunderground v.1.13,2013-02-18 04:27:00,
2013-02-17 20:30:00,43.9,37.2,29.92,North,-999,0.0,0.0,77,0.00,,,-99.99,0,WeatherLink 5.7,2013-02-18 04:30:00,
2013-02-17 20:37:00,47.1,38.2,29.90,NW,325,0.0,0.0,71,0.00,,,0.00,,Wunderground v.1.13,2013-02-18 04:37:00,
2013-02-17 20:42:00,46.7,38.1,29.90,NW,325,0.0,0.0,72,0.00,,,0.00,,Wunderground v.1.13,2013-02-18 04:42:00,
2013-02-17 20:45:00,43.3,37.5,29.92,North,-999,0.0,0.0,80,0.00,,,-99.99,0,WeatherLink 5.7,2013-02-18 04:45:00,
2013-02-17 20:52:00,46.1,37.9,29.90,NW,326,0.0,0.0,73,0.00,,,0.00,,Wunderground v.1.13,2013-02-18 04:52:00,
2013-02-17 21:00:00,43.1,37.3,29.92,North,-999,0.0,0.0,80,0.00,,,-99.99,0,WeatherLink 5.7,2013-02-18 05:00:00,
2013-02-17 21:02:00,45.4,37.9,29.91,NW,325,0.0,0.0,75,0.00,,,0.00,,Wunderground v.1.13,2013-02-18 05:02:00,
2013-02-17 21:07:00,45.1,37.6,29.91,NW,325,0.0,0.0,75,0.00,,,0.00,,Wunderground v.1.13,2013-02-18 05:07:00,
2013-02-17 21:15:00,42.9,37.5,29.92,NW,315,0.0,1.0,81,0.00,,,-99.99,0,WeatherLink 5.7,2013-02-18 05:15:00,
2013-02-17 21:17:00,44.6,37.5,29.91,NW,326,0.0,0.0,76,0.00,,,0.00,,Wunderground v.1.13,2013-02-18 05:17:00,
2013-02-17 21:27:00,44.1,37.3,29.91,NW,325,0.0,0.0,77,0.00,,,0.00,,Wunderground v.1.13,2013-02-18 05:27:00,
2013-02-17 21:30:00,42.8,37.4,29.92,NW,315,0.0,1.0,81,0.00,,,-99.99,0,WeatherLink 5.7,2013-02-18 05:30:00,
2013-02-17 21:36:00,43.6,37.2,29.92,NW,325,0.0,0.0,78,0.00,,,0.00,,Wunderground v.1.13,2013-02-18 05:36:00,
2013-02-17 21:41:00,43.5,37.1,29.92,NW,325,0.0,0.0,78,0.00,,,0.00,,Wunderground v.1.13,2013-02-18 05:41:00,
2013-02-17 21:45:00,42.3,36.9,29.92,North,-999,0.0,0.0,81,0.00,,,-99.99,0,WeatherLink 5.7,2013-02-18 05:45:00,
2013-02-17 21:47:00,43.3,37.5,29.92,NW,325,0.0,0.0,80,0.00,,,0.00,,Wunderground v.1.13,2013-02-18 05:47:00,
2013-02-17 21:57:00,43.2,37.4,29.92,NW,325,0.0,0.0,80,0.00,,,0.00,,Wunderground v.1.13,2013-02-18 05:57:00,
2013-02-17 22:00:00,41.6,36.8,29.92,North,-999,0.0,0.0,83,0.00,,,-99.99,0,WeatherLink 5.7,2013-02-18 06:00:00,
2013-02-17 22:07:00,42.9,37.5,29.92,NW,325,0.0,0.0,81,0.00,,,0.00,,Wunderground v.1.13,2013-02-18 06:07:00,
2013-02-17 22:15:00,41.1,36.3,29.92,North,-999,0.0,0.0,83,0.00,,,-99.99,0,WeatherLink 5.7,2013-02-18 06:15:00,
2013-02-17 22:17:00,42.9,37.5,29.92,NW,326,0.0,0.0,81,0.00,,,0.00,,Wunderground v.1.13,2013-02-18 06:17:00,
2013-02-17 22:22:00,42.8,37.4,29.92,NW,325,0.0,1.0,81,0.00,,,0.00,,Wunderground v.1.13,2013-02-18 06:22:00,
2013-02-17 22:30:00,40.6,36.1,29.92,North,-999,0.0,0.0,84,0.00,,,-99.99,0,WeatherLink 5.7,2013-02-18 06:30:00,
2013-02-17 22:31:00,42.8,37.4,29.92,NW,325,0.0,0.0,81,0.00,,,0.00,,Wunderground v.1.13,2013-02-18 06:31:00,
2013-02-17 22:37:00,42.6,37.2,29.92,NW,325,0.0,0.0,81,0.00,,,0.00,,Wunderground v.1.13,2013-02-18 06:37:00,
2013-02-17 22:45:00,40.3,36.1,29.92,North,-999,0.0,0.0,85,0.00,,,-99.99,0,WeatherLink 5.7,2013-02-18 06:45:00,
2013-02-17 22:47:00,42.2,36.8,29.92,NW,326,0.0,0.0,81,0.00,,,0.00,,Wunderground v.1.13,2013-02-18 06:47:00,
2013-02-17 22:56:00,41.8,36.7,29.92,NW,325,0.0,0.0,82,0.00,,,0.00,,Wunderground v.1.13,2013-02-18 06:56:00,
2013-02-17 23:00:00,39.9,36.1,29.92,North,-999,0.0,0.0,86,0.00,,,-99.99,0,WeatherLink 5.7,2013-02-18 07:00:00,
2013-02-17 23:07:00,41.3,36.5,29.92,NW,325,0.0,0.0,83,0.00,,,0.00,,Wunderground v.1.13,2013-02-18 07:07:00,
2013-02-17 23:12:00,41.2,36.4,29.92,NW,325,0.0,0.0,83,0.00,,,0.00,,Wunderground v.1.13,2013-02-18 07:12:00,
2013-02-17 23:15:00,39.6,36.0,29.92,North,-999,0.0,0.0,87,0.00,,,-99.99,0,WeatherLink 5.7,2013-02-18 07:15:00,
2013-02-17 23:21:00,40.9,36.4,29.92,NW,326,0.0,0.0,84,0.00,,,0.00,,Wunderground v.1.13,2013-02-18 07:21:00,
2013-02-17 23:27:00,40.6,36.1,29.92,NW,325,0.0,0.0,84,0.00,,,0.00,,Wunderground v.1.13,2013-02-18 07:27:00,
2013-02-17 23:30:00,39.5,36.2,29.92,NW,315,0.0,1.0,88,0.00,,,-99.99,0,WeatherLink 5.7,2013-02-18 07:30:00,
2013-02-17 23:32:00,40.6,36.4,29.92,NW,325,0.0,0.0,85,0.00,,,0.00,,Wunderground v.1.13,2013-02-18 07:32:00,
2013-02-17 23:42:00,40.3,36.1,29.92,NW,325,0.0,0.0,85,0.00,,,0.00,,Wunderground v.1.13,2013-02-18 07:42:00,
2013-02-17 23:45:00,39.2,35.9,29.92,North,-999,0.0,0.0,88,0.00,,,-99.99,0,WeatherLink 5.7,2013-02-18 07:45:00,
2013-02-17 23:52:00,40.2,36.3,29.92,NW,325,0.0,0.0,86,0.00,,,0.00,,Wunderground v.1.13,2013-02-18 07:52:00,